CFG12H EDDH-EFHK
Flight info
| Callsign | CFG12H |
|---|---|
| Flight time | N/A |
| Altitude | 35000 |
| Route | LUGEG3G/33 LUGEG P605 MEGAR DCT RIRIP Y364 LAKUT |
| Aircraft | A320/M-SDE3FGHIRWY/LB1 |
Departure
| Time | 2026-04-30 17:46 |
|---|---|
| Airport | Hamburg Helmut Schmidt Airport (EDDH) |
Arrival
| Time | N/A |
|---|---|
| Airport | Helsinki Vantaa Airport (EFHK) |
| Time | Latitude | Longitude | Altitude | Speed | Heading |
|---|---|---|---|---|---|
| 2026-04-30 17:39 | 53.63062 | 10.00257 | 48 ft | 0 kts | 216° |
| 2026-04-30 17:41 | 53.62850 | 9.99978 | 48 ft | 9 kts | 244° |
| 2026-04-30 17:42 | 53.62841 | 9.99948 | 48 ft | 0 kts | 244° |
| 2026-04-30 17:42 | 53.62841 | 9.99947 | 48 ft | 0 kts | 244° |
| 2026-04-30 17:43 | 53.62829 | 9.99906 | 47 ft | 4 kts | 244° |
| 2026-04-30 17:44 | 53.62842 | 9.99766 | 45 ft | 0 kts | 335° |
| 2026-04-30 17:44 | 53.63430 | 9.99262 | 45 ft | 115 kts | 332° |
| 2026-04-30 17:46 | 53.68513 | 9.94970 | 2335 ft | 195 kts | 343° |
| 2026-04-30 17:47 | 53.74100 | 9.96868 | 4380 ft | 230 kts | 56° |
| 2026-04-30 17:48 | 53.77220 | 10.07522 | 7623 ft | 260 kts | 65° |
| 2026-04-30 17:48 | 53.79633 | 10.15942 | 10303 ft | 271 kts | 65° |
| 2026-04-30 17:49 | 53.83190 | 10.28386 | 12515 ft | 321 kts | 65° |
| 2026-04-30 17:50 | 53.87159 | 10.42272 | 15477 ft | 334 kts | 65° |
| 2026-04-30 17:51 | 53.90214 | 10.53079 | 17532 ft | 343 kts | 64° |
| 2026-04-30 17:52 | 53.93344 | 10.64150 | 19444 ft | 351 kts | 62° |
| 2026-04-30 17:53 | 54.01419 | 10.80095 | 22303 ft | 365 kts | 46° |
| 2026-04-30 17:54 | 54.08477 | 10.92999 | 24386 ft | 379 kts | 46° |
| 2026-04-30 17:55 | 54.15745 | 11.06400 | 26073 ft | 390 kts | 46° |
| 2026-04-30 17:56 | 54.23175 | 11.20231 | 27624 ft | 400 kts | 46° |
| 2026-04-30 17:57 | 54.28854 | 11.30884 | 28771 ft | 407 kts | 45° |
| 2026-04-30 17:58 | 54.34630 | 11.41751 | 29801 ft | 415 kts | 45° |
| 2026-04-30 17:59 | 54.42488 | 11.56592 | 30981 ft | 424 kts | 45° |
| 2026-04-30 18:00 | 54.51073 | 11.70665 | 31888 ft | 431 kts | 37° |
| 2026-04-30 18:00 | 54.58080 | 11.80317 | 32866 ft | 429 kts | 37° |
| 2026-04-30 18:01 | 54.62733 | 11.86769 | 33501 ft | 429 kts | 37° |
| 2026-04-30 18:02 | 54.69701 | 11.96472 | 34462 ft | 429 kts | 37° |
| 2026-04-30 18:02 | 54.76643 | 12.06163 | 35329 ft | 427 kts | 37° |
| 2026-04-30 18:03 | 54.83480 | 12.15768 | 35437 ft | 417 kts | 38° |
| 2026-04-30 18:04 | 54.90227 | 12.25275 | 35437 ft | 416 kts | 38° |
| 2026-04-30 18:06 | 55.08203 | 12.50817 | 35428 ft | 417 kts | 38° |
| 2026-04-30 18:08 | 55.23910 | 12.73404 | 35418 ft | 418 kts | 38° |
| 2026-04-30 18:10 | 55.41778 | 12.99376 | 35434 ft | 416 kts | 38° |
| 2026-04-30 18:11 | 55.57278 | 13.22174 | 35429 ft | 415 kts | 38° |
| 2026-04-30 18:13 | 55.68344 | 13.38602 | 35413 ft | 415 kts | 38° |
| 2026-04-30 18:14 | 55.79401 | 13.55134 | 35409 ft | 416 kts | 38° |
| 2026-04-30 18:15 | 55.92615 | 13.75079 | 35426 ft | 413 kts | 38° |
| 2026-04-30 18:16 | 56.01359 | 13.88347 | 35416 ft | 412 kts | 38° |
| 2026-04-30 18:17 | 56.05725 | 13.95001 | 35414 ft | 412 kts | 38° |
| 2026-04-30 18:18 | 56.12245 | 14.05003 | 35403 ft | 411 kts | 38° |
| 2026-04-30 18:18 | 56.16566 | 14.11650 | 35388 ft | 416 kts | 38° |
| 2026-04-30 18:19 | 56.21026 | 14.18525 | 35393 ft | 428 kts | 38° |
| 2026-04-30 18:19 | 56.25556 | 14.25540 | 35387 ft | 430 kts | 39° |
| 2026-04-30 18:20 | 56.30088 | 14.32594 | 35372 ft | 430 kts | 38° |
| 2026-04-30 18:20 | 56.34609 | 14.39648 | 35362 ft | 431 kts | 39° |
| 2026-04-30 18:21 | 56.39147 | 14.46748 | 35360 ft | 431 kts | 39° |
| 2026-04-30 18:21 | 56.43677 | 14.53858 | 35368 ft | 431 kts | 39° |
| 2026-04-30 18:22 | 56.48191 | 14.60952 | 35391 ft | 430 kts | 38° |
| 2026-04-30 18:22 | 56.54907 | 14.71571 | 35384 ft | 428 kts | 39° |
| 2026-04-30 18:23 | 56.59390 | 14.78692 | 35366 ft | 428 kts | 39° |
| 2026-04-30 18:23 | 56.63863 | 14.85806 | 35376 ft | 427 kts | 39° |
| 2026-04-30 18:24 | 56.70564 | 14.96505 | 35364 ft | 427 kts | 39° |
| 2026-04-30 18:25 | 56.75019 | 15.03658 | 35367 ft | 427 kts | 39° |
| 2026-04-30 18:25 | 56.80944 | 15.13203 | 35349 ft | 427 kts | 39° |
| 2026-04-30 18:26 | 56.87632 | 15.24046 | 35353 ft | 428 kts | 39° |
| 2026-04-30 18:27 | 56.94304 | 15.34899 | 35349 ft | 428 kts | 39° |
| 2026-04-30 18:28 | 57.00979 | 15.45796 | 35339 ft | 429 kts | 39° |
| 2026-04-30 18:28 | 57.07642 | 15.56754 | 35361 ft | 428 kts | 39° |
| 2026-04-30 18:29 | 57.16462 | 15.71343 | 35355 ft | 427 kts | 39° |
| 2026-04-30 18:30 | 57.25293 | 15.86018 | 35350 ft | 428 kts | 39° |
| 2026-04-30 18:31 | 57.31911 | 15.97128 | 35347 ft | 429 kts | 39° |
| 2026-04-30 18:32 | 57.38532 | 16.08269 | 35348 ft | 429 kts | 39° |
| 2026-04-30 18:33 | 57.45111 | 16.19366 | 35352 ft | 429 kts | 39° |
| 2026-04-30 18:33 | 57.51727 | 16.30600 | 35350 ft | 429 kts | 40° |
| 2026-04-30 18:34 | 57.58297 | 16.41832 | 35344 ft | 429 kts | 40° |
| 2026-04-30 18:35 | 57.62696 | 16.49390 | 35346 ft | 430 kts | 40° |
| 2026-04-30 18:35 | 57.67082 | 16.56944 | 35370 ft | 428 kts | 40° |
| 2026-04-30 18:36 | 57.73635 | 16.68270 | 35362 ft | 427 kts | 40° |
| 2026-04-30 18:37 | 57.80163 | 16.79618 | 35360 ft | 426 kts | 40° |
| 2026-04-30 18:37 | 57.84506 | 16.87195 | 35357 ft | 426 kts | 40° |
| 2026-04-30 18:38 | 57.88839 | 16.94779 | 35351 ft | 426 kts | 40° |
| 2026-04-30 18:38 | 57.93176 | 17.02399 | 35352 ft | 426 kts | 40° |
| 2026-04-30 18:39 | 57.97503 | 17.10029 | 35345 ft | 426 kts | 40° |
| 2026-04-30 18:39 | 58.01816 | 17.17690 | 35346 ft | 426 kts | 40° |
| 2026-04-30 18:40 | 58.06112 | 17.25321 | 35653 ft | 426 kts | 40° |
| 2026-04-30 18:40 | 58.08294 | 17.29201 | 35890 ft | 426 kts | 40° |
| 2026-04-30 18:40 | 58.10424 | 17.32993 | 36093 ft | 425 kts | 40° |
| 2026-04-30 18:40 | 58.12574 | 17.36833 | 36307 ft | 425 kts | 40° |
| 2026-04-30 18:41 | 58.14720 | 17.40678 | 36518 ft | 425 kts | 40° |
| 2026-04-30 18:41 | 58.16868 | 17.44536 | 36714 ft | 424 kts | 40° |
| 2026-04-30 18:41 | 58.19004 | 17.48377 | 36899 ft | 424 kts | 40° |
| 2026-04-30 18:41 | 58.21144 | 17.52228 | 37087 ft | 424 kts | 40° |
| 2026-04-30 18:42 | 58.23280 | 17.56077 | 37295 ft | 423 kts | 40° |
| 2026-04-30 18:42 | 58.29646 | 17.67590 | 37335 ft | 420 kts | 40° |
| 2026-04-30 18:45 | 58.52780 | 18.09952 | 37339 ft | 419 kts | 40° |
| 2026-04-30 18:46 | 58.56973 | 18.17707 | 37337 ft | 419 kts | 40° |
| 2026-04-30 18:46 | 58.61158 | 18.25468 | 37357 ft | 419 kts | 40° |
| 2026-04-30 18:47 | 58.65334 | 18.33257 | 37349 ft | 418 kts | 40° |
| 2026-04-30 18:47 | 58.69507 | 18.41086 | 37355 ft | 418 kts | 41° |
| 2026-04-30 18:48 | 58.73664 | 18.48909 | 37355 ft | 418 kts | 41° |
| 2026-04-30 18:48 | 58.77818 | 18.56738 | 37353 ft | 418 kts | 41° |
| 2026-04-30 18:49 | 58.81966 | 18.64584 | 37346 ft | 418 kts | 41° |
| 2026-04-30 18:49 | 58.86105 | 18.72433 | 37351 ft | 417 kts | 41° |
| 2026-04-30 18:50 | 58.90244 | 18.80302 | 37348 ft | 417 kts | 41° |
| 2026-04-30 18:50 | 58.94377 | 18.88189 | 37347 ft | 417 kts | 41° |
| 2026-04-30 18:51 | 58.98501 | 18.96108 | 37347 ft | 417 kts | 41° |
| 2026-04-30 18:51 | 59.02623 | 19.04058 | 37343 ft | 417 kts | 41° |
| 2026-04-30 18:52 | 59.06731 | 19.12001 | 37352 ft | 417 kts | 41° |
| 2026-04-30 18:52 | 59.10850 | 19.19967 | 37341 ft | 418 kts | 41° |
| 2026-04-30 18:53 | 59.14962 | 19.27960 | 37338 ft | 418 kts | 41° |
| 2026-04-30 18:53 | 59.19071 | 19.35998 | 37336 ft | 418 kts | 41° |
| 2026-04-30 18:54 | 59.23171 | 19.44050 | 37331 ft | 418 kts | 41° |
| 2026-04-30 18:54 | 59.27273 | 19.52120 | 37332 ft | 418 kts | 41° |
| 2026-04-30 18:55 | 59.31366 | 19.60184 | 37346 ft | 418 kts | 41° |
| 2026-04-30 18:55 | 59.37498 | 19.72352 | 37345 ft | 418 kts | 41° |
| 2026-04-30 18:56 | 59.43579 | 19.84491 | 37356 ft | 416 kts | 41° |
| 2026-04-30 18:57 | 59.49639 | 19.96642 | 37338 ft | 415 kts | 41° |
| 2026-04-30 18:57 | 59.53674 | 20.04758 | 37342 ft | 414 kts | 41° |
| 2026-04-30 18:58 | 59.59705 | 20.16965 | 37335 ft | 414 kts | 41° |
| 2026-04-30 18:59 | 59.65729 | 20.29238 | 37323 ft | 414 kts | 41° |
| 2026-04-30 19:00 | 59.73749 | 20.45649 | 37322 ft | 414 kts | 41° |
| 2026-04-30 19:01 | 59.81740 | 20.62149 | 37321 ft | 415 kts | 41° |
| 2026-04-30 19:02 | 59.87731 | 20.74588 | 37307 ft | 415 kts | 41° |
| 2026-04-30 19:03 | 59.95709 | 20.91243 | 37300 ft | 415 kts | 42° |
| 2026-04-30 19:04 | 60.03660 | 21.07991 | 37320 ft | 414 kts | 42° |
| 2026-04-30 19:05 | 60.11542 | 21.24721 | 37315 ft | 414 kts | 42° |
| 2026-04-30 19:06 | 60.19175 | 21.42024 | 37316 ft | 420 kts | 53° |
| 2026-04-30 19:06 | 60.21931 | 21.59090 | 37304 ft | 436 kts | 71° |
| 2026-04-30 19:07 | 60.23803 | 21.76987 | 37297 ft | 436 kts | 71° |
| 2026-04-30 19:08 | 60.26269 | 22.00895 | 37309 ft | 436 kts | 71° |
| 2026-04-30 19:09 | 60.28070 | 22.18824 | 37299 ft | 435 kts | 72° |
| 2026-04-30 19:09 | 60.28466 | 22.22789 | 37192 ft | 435 kts | 72° |
| 2026-04-30 19:09 | 60.29063 | 22.28763 | 36909 ft | 434 kts | 71° |
| 2026-04-30 19:10 | 60.30248 | 22.40693 | 36396 ft | 434 kts | 72° |
| 2026-04-30 19:10 | 60.31419 | 22.52664 | 35086 ft | 436 kts | 71° |
| 2026-04-30 19:11 | 60.32002 | 22.58668 | 34253 ft | 437 kts | 71° |
| 2026-04-30 19:11 | 60.33164 | 22.70730 | 32326 ft | 439 kts | 71° |
| 2026-04-30 19:11 | 60.33744 | 22.76805 | 31341 ft | 442 kts | 71° |
| 2026-04-30 19:12 | 60.34321 | 22.82904 | 30365 ft | 443 kts | 71° |
| 2026-04-30 19:12 | 60.34904 | 22.89057 | 29111 ft | 446 kts | 71° |
| 2026-04-30 19:12 | 60.35484 | 22.95202 | 28023 ft | 446 kts | 71° |
| 2026-04-30 19:13 | 60.36635 | 23.07552 | 25666 ft | 449 kts | 72° |
| 2026-04-30 19:13 | 60.37765 | 23.19798 | 24090 ft | 437 kts | 72° |
| 2026-04-30 19:13 | 60.38315 | 23.25807 | 23225 ft | 433 kts | 72° |
| 2026-04-30 19:14 | 60.38853 | 23.31744 | 22481 ft | 426 kts | 72° |
| 2026-04-30 19:14 | 60.39380 | 23.37593 | 21769 ft | 420 kts | 72° |
| 2026-04-30 19:14 | 60.39898 | 23.43367 | 21089 ft | 415 kts | 72° |
| 2026-04-30 19:14 | 60.40411 | 23.49080 | 20418 ft | 410 kts | 72° |
| 2026-04-30 19:15 | 60.40915 | 23.54723 | 19779 ft | 406 kts | 72° |
| 2026-04-30 19:15 | 60.41900 | 23.65863 | 18684 ft | 395 kts | 72° |
| 2026-04-30 19:15 | 60.42362 | 23.71172 | 18570 ft | 380 kts | 72° |
| 2026-04-30 19:16 | 60.42809 | 23.76407 | 18435 ft | 365 kts | 72° |
| 2026-04-30 19:16 | 60.43225 | 23.81305 | 18299 ft | 351 kts | 72° |
| 2026-04-30 19:16 | 60.44016 | 23.90828 | 17652 ft | 339 kts | 73° |
| 2026-04-30 19:17 | 60.44324 | 23.95553 | 17389 ft | 336 kts | 74° |
| 2026-04-30 19:17 | 60.44828 | 24.04774 | 16856 ft | 322 kts | 75° |
| 2026-04-30 19:17 | 60.45065 | 24.09238 | 16615 ft | 316 kts | 75° |
| 2026-04-30 19:18 | 60.45458 | 24.16552 | 16154 ft | 309 kts | 75° |
| 2026-04-30 19:18 | 60.45780 | 24.22279 | 15637 ft | 309 kts | 74° |
| 2026-04-30 19:18 | 60.46020 | 24.26616 | 15182 ft | 311 kts | 75° |
| 2026-04-30 19:19 | 60.46214 | 24.30955 | 14947 ft | 306 kts | 76° |
| 2026-04-30 19:19 | 60.46378 | 24.35222 | 14706 ft | 301 kts | 77° |
| 2026-04-30 19:19 | 60.46663 | 24.43337 | 14358 ft | 273 kts | 77° |
| 2026-04-30 19:20 | 60.46794 | 24.47097 | 14093 ft | 264 kts | 76° |
| 2026-04-30 19:20 | 60.46931 | 24.50776 | 13673 ft | 260 kts | 76° |
| 2026-04-30 19:20 | 60.47219 | 24.58030 | 12689 ft | 256 kts | 76° |
| 2026-04-30 19:21 | 60.47267 | 24.61657 | 12152 ft | 260 kts | 85° |
| 2026-04-30 19:21 | 60.46689 | 24.68963 | 11081 ft | 262 kts | 92° |
| 2026-04-30 19:22 | 60.46043 | 24.76177 | 10046 ft | 258 kts | 93° |
| 2026-04-30 19:22 | 60.45088 | 24.86792 | 8352 ft | 251 kts | 93° |
| 2026-04-30 19:23 | 60.45873 | 24.96596 | 6910 ft | 230 kts | 56° |